Station FAIO1 - 9063053 - Fairport, OH Image indicating link to RSS feed of recent meteorological observations for station FAIO1


Conditions at FAIO1 as of
(5:48 am EDT)
0948 GMT on 04/18/2026:
     

Click on the graph icon in the table below to see a time series plot of the last five days of that observation.

5-day plot - Wind Direction Wind Direction (WDIR): S ( 170 deg true )
5-day plot - Wind Speed Wind Speed (WSPD): 18.1 kts
5-day plot - Wind Gust Wind Gust (GST): 21.0 kts
5-day plot - Atmospheric Pressure Atmospheric Pressure (PRES):29.73 in
5-day plot - Water Temperature Water Temperature (WTMP): 64.4 °F
5-day plot - Wind Speed at 10 Meters Wind Speed at 10 meters (WSPD10M): 15.5 kts
5-day plot - Wind Speed at 20 Meters Wind Speed at 20 meters (WSPD20M): 17.5 kts
5-day plot -  Wind Speed, Wind Gust and Atmospheric Pressure Combined plot of Wind Speed, Gust, and Air Pressure
NOS Water Level Observation Network Water Level
Previous observations
TIME
(EDT)
5-day plot - Wind Direction
WDIR
 
5-day plot - Wind Speed
WSPD
kts
5-day plot - Wind Gust
GST
kts
5-day plot - Wave Height
WVHT
ft
5-day plot - Dominant Wave Period
DPD
sec
5-day plot - Average Wave Period
APD
sec
5-day plot - Mean Wave Direction
MWD
 
5-day plot - Atmospheric Pressure
PRES
in
5-day plot - Pressure Tendency
PTDY
in
5-day plot - Air Temperature
ATMP
°F
5-day plot - Water Temperature
WTMP
°F
5-day plot - Dew Point
DEWP
°F
5-day plot - Salinity
SAL
psu
5-day plot - Visibility
VIS
nmi
5-day plot - Tide (above MLLW)
TIDE
ft
2026-04-18 05:42 am S 15.9 20.0----29.73-- 64.4----
2026-04-18 05:36 am S 15.9 19.0----29.73-- 64.4----
2026-04-18 05:30 amSSE 17.1 21.0----29.73- 68.9 64.4 52.9---
2026-04-18 05:24 amSSE 15.9 22.9----29.73- 68.7 64.4 53.1---
2026-04-18 05:18 amSSE 15.0 22.9----29.74-- 64.6----
2026-04-18 05:12 amSSE 14.0 18.1----29.74-- 64.6----
2026-04-18 05:06 amSSE 13.0 17.1----29.75-- 64.6----
2026-04-18 05:00 amSSE 15.0 18.1----29.75-0.08 68.0 64.6 52.9---
2026-04-18 04:54 amSSE 14.0 18.1----29.75- 67.8 64.6 53.2---
2026-04-18 04:48 amSSE 14.0 17.1----29.75-- 64.8----
2026-04-18 04:42 amSSE 14.0 17.1----29.75-- 64.8----
2026-04-18 04:36 amSSE 14.0 17.1----29.76-- 64.8----
2026-04-18 04:30 amSSE 14.0 18.1----29.76-- 64.8----
2026-04-18 04:24 amSSE 15.0 18.1----29.76-- 64.8----
2026-04-18 04:18 amSSE 13.0 15.9----29.76-- 64.9----
2026-04-18 04:12 amSSE 15.0 19.0----29.76-- 64.9----
2026-04-18 04:06 amSSE 14.0 15.9----29.77-- 64.9----
2026-04-18 04:00 amSSE 13.0 18.1----29.77-0.09 68.0 64.9 53.8---
2026-04-18 03:54 amSSE 14.0 17.1----29.77- 67.8 64.9 54.3---
2026-04-18 03:48 amSSE 15.0 18.1----29.77-------
2026-04-18 03:42 amSSE 14.0 18.1----29.77-------
2026-04-18 03:36 amSSE 14.0 17.1----29.78-------
2026-04-18 03:30 amSSE 13.0 15.9----29.78- 67.1 65.1 54.0---
2026-04-18 03:24 amSSE 13.0 15.9----29.78- 66.9 65.1 53.6---
2026-04-18 03:18 amSSE 13.0 15.9----29.79-- 65.1----
2026-04-18 03:12 amSSE 12.0 15.0----29.79-- 65.1----
2026-04-18 03:06 amSSE 13.0 15.0----29.79-- 65.1----
2026-04-18 03:00 amSSE 12.0 14.0----29.80-0.08 66.2 65.3 54.1---
2026-04-18 02:54 amSSE 12.0 15.0----29.80- 66.6 65.3 53.8---
2026-04-18 02:48 amSSE 12.0 15.0----29.80-- 65.3----
2026-04-18 02:42 amSSE 12.0 15.0----29.80-- 65.3----
2026-04-18 02:36 amSSE 11.1 14.0----29.81-- 65.3----
2026-04-18 02:30 amSSE 12.0 15.0----29.81- 66.2 65.3 53.8---
2026-04-18 02:24 amSSE 11.1 14.0----29.81- 66.4 65.3 54.0---
2026-04-18 02:18 amSSE 11.1 15.0----29.82-- 65.3----
2026-04-18 02:12 amSSE 12.0 14.0----29.82-- 65.3----
2026-04-18 02:06 amSSE 12.0 14.0----29.83-- 65.5----
2026-04-18 02:00 amSSE 11.1 15.0----29.83-0.06 66.4 65.5 53.6---
2026-04-18 01:54 amSSE 11.1 14.0----29.83- 66.4 65.5 53.2---
2026-04-18 01:48 amSSE 11.1 14.0----29.84-- 65.5----
2026-04-18 01:42 amSSE 12.0 13.0----29.84-- 65.5----
2026-04-18 01:36 amSSE 11.1 14.0----29.85-- 65.5----
2026-04-18 01:30 amSSE 13.0 15.0----29.85- 66.2 65.7 53.1---
2026-04-18 01:24 amSSE 12.0 15.0----29.85- 66.2 65.5 52.7---
2026-04-18 01:18 amSSE 12.0 15.9----29.85-- 65.5----
2026-04-18 01:12 amSSE 9.9 14.0----29.85-- 65.5----
2026-04-18 01:06 amSSE 12.0 14.0----29.86-- 65.5----
2026-04-18 01:00 amSSE 11.1 13.0----29.86-0.04 65.5 65.7 52.3---
2026-04-18 12:54 amSSE 11.1 13.0----29.87- 64.9 65.7 51.8---
2026-04-18 12:48 amSSE 9.9 12.0----29.87-------
2026-04-18 12:42 amSSE 9.9 12.0----29.87-------
2026-04-18 12:36 amSSE 8.9 12.0----29.87-------
2026-04-18 12:30 amSSE 8.9 12.0----29.87- 63.5 65.7 50.2---
2026-04-18 12:24 amSSE 9.9 12.0----29.88- 62.8 65.7 49.5---
2026-04-18 12:18 amSSE 8.9 9.9----29.88-- 65.8----
2026-04-18 12:12 amSSE 8.0 9.9----29.88-- 65.8----
2026-04-18 12:06 amSSE 8.9 11.1----29.88-- 65.8----
2026-04-18 12:00 am SE 8.9 9.9----29.88-0.01 62.2 65.8 48.0---
2026-04-17 11:54 pm SE 8.9 9.9----29.88- 61.3 65.8 47.8---
2026-04-17 11:48 pm SE 7.0 8.0----29.88-------
2026-04-17 11:42 pm SE 5.1 6.0----29.88-------
2026-04-17 11:36 pmESE 6.0 7.0----29.88-------
2026-04-17 11:30 pm E 5.1 6.0----29.88- 57.9 65.7 49.1---
2026-04-17 11:24 pm E 5.1 5.1----29.88- 56.8 65.7 50.4---
2026-04-17 11:18 pm E 5.1 6.0----29.89-- 65.7----
2026-04-17 11:12 pm E 6.0 8.0----29.89-- 65.8----
2026-04-17 11:06 pm E 8.0 8.0----29.89-- 65.8----
2026-04-17 11:00 pm E 7.0 8.0----29.89-0.02 58.6 65.8 44.4---
2026-04-17 10:54 pm E 7.0 7.0----29.90- 58.1 65.8 46.2---
2026-04-17 10:48 pm E 6.0 8.0----29.90-- 65.8----
2026-04-17 10:42 pm E 8.0 8.0----29.90-- 65.8----
2026-04-17 10:36 pm E 8.0 8.9----29.90-- 65.8----
2026-04-17 10:30 pm E 8.0 8.0----29.90- 56.1 65.7 51.8---
2026-04-17 10:24 pm E 7.0 8.9----29.91- 55.6 65.7 53.8---
2026-04-17 10:18 pm E 8.0 9.9----29.91-- 65.8----
2026-04-17 10:12 pm E 8.0 8.9----29.90-- 65.8----
2026-04-17 10:06 pmENE 8.9 9.9----29.90-- 65.8----
2026-04-17 10:00 pmENE 9.9 9.9----29.90-0.02 55.6 65.7 53.6---
2026-04-17 09:54 pm-------29.90- 55.8 65.7 53.4---
2026-04-17 09:48 pm-------29.90- 56.1 65.7 53.4---
2026-04-17 09:42 pm-------29.90- 55.8 65.7 53.1---
2026-04-17 09:36 pm-------29.90- 55.4 65.7 53.8---
2026-04-17 09:30 pm-------29.90- 55.8 65.7 54.0---
2026-04-17 09:24 pm-------29.90- 56.1 65.7 53.8---
2026-04-17 09:18 pm-------29.89-------
2026-04-17 09:12 pm-------29.89-------
2026-04-17 09:06 pm-------29.89-------
2026-04-17 09:00 pm-------29.89-0.07 55.9 65.3 54.3---
2026-04-17 08:54 pm-------29.88- 55.4 65.5 53.8---
2026-04-17 08:48 pm-------29.88-- 65.5----
2026-04-17 08:42 pm-------29.88-- 65.3----
2026-04-17 08:36 pm-------29.88-- 65.3----
2026-04-17 08:30 pmENE 13.0 14.0----29.88- 54.9 65.3 54.9---
2026-04-17 08:24 pmENE 12.0 13.0----29.89- 54.9 65.1 54.9---
2026-04-17 08:18 pmENE 12.0 13.0----29.90-- 65.3----
2026-04-17 08:12 pmENE 13.0 14.0----29.90-- 65.3----
2026-04-17 08:06 pmENE 13.0 14.0----29.90-- 65.3----
2026-04-17 08:00 pm-------29.91-0.06 53.8 65.1 53.8---
2026-04-17 07:54 pm-------29.91- 54.0 65.1 54.0---
2026-04-17 07:48 pm-------29.91-------
2026-04-17 07:42 pm-------29.91-------
2026-04-17 07:36 pm-------29.92-------
2026-04-17 07:30 pm-------29.92- 53.4 64.9 53.4---
2026-04-17 07:24 pm-------29.92- 53.2 64.9 53.1---
2026-04-17 07:18 pm-------29.92-- 64.9----
2026-04-17 07:12 pm-------29.93-- 64.9----
2026-04-17 07:06 pm-------29.92-- 64.8----
2026-04-17 07:00 pm-------29.92-0.09 53.1 64.8 53.1---
2026-04-17 06:54 pm-------29.92- 52.5 64.8 52.5---
2026-04-17 06:48 pm-------29.92-------
2026-04-17 06:42 pm-------29.93-------
2026-04-17 06:36 pm-------29.93-------
2026-04-17 06:30 pm-------29.93- 50.7 64.8 50.7---
2026-04-17 06:24 pm-------29.94- 50.2 64.8 50.2---
2026-04-17 06:18 pm-------29.95-------
2026-04-17 06:12 pm-------29.96-------
2026-04-17 06:06 pm-------29.96-------
2026-04-17 06:00 pm-------29.96-0.05 49.8 64.6 49.8---
2026-04-17 05:54 pm-------29.97- 49.3 64.6 49.3---
2026-04-17 05:48 pm-------29.98-------
2026-04-17 05:42 pm-------29.98-------
2026-04-17 05:36 pm-------29.98-------
2026-04-17 05:30 pm-------29.98- 48.0 64.8 48.0---
2026-04-17 05:24 pm-------29.98- 48.4 64.8 48.4---
2026-04-17 05:18 pm-------29.98-------
2026-04-17 05:12 pm-------29.98-------
2026-04-17 05:06 pm-------29.97-------
2026-04-17 05:00 pm-------29.97-0.06 48.4 64.4 48.4---
2026-04-17 04:54 pm-------29.98- 47.7 64.4 47.7---
2026-04-17 04:48 pm-------29.98-------
2026-04-17 04:42 pm-------29.98-------
2026-04-17 04:36 pm-------29.99-------
2026-04-17 04:30 pm-------29.99- 47.3 64.6 47.3---
2026-04-17 04:24 pm-------30.00- 47.3 64.6 47.3---
2026-04-17 04:18 pm NE 7.0 8.0----30.00-- 64.6----
2026-04-17 04:12 pm NE 7.0 8.0----30.00-- 64.6----
2026-04-17 04:06 pm-------30.00-- 64.6----
2026-04-17 04:00 pm NE 7.0 8.9----30.01-0.03 46.8 64.2 46.8---
2026-04-17 03:54 pm-------30.01- 46.8 64.9 46.8---
2026-04-17 03:48 pm-------30.01-------
2026-04-17 03:42 pm-------30.01-------
2026-04-17 03:36 pm-------30.02-------
2026-04-17 03:30 pmNNE 6.0 7.0----30.01- 46.8 64.4 46.8---
2026-04-17 03:24 pmNNE 6.0 7.0----30.02- 46.8 64.4 46.8---
2026-04-17 03:18 pm-------30.01-------
2026-04-17 03:12 pm-------30.01-------
2026-04-17 03:06 pm-------30.01-------
2026-04-17 03:00 pm NE 5.1 7.0----30.01-0.01 46.6 63.7 46.6---
2026-04-17 02:54 pmNNE 6.0 7.0----30.02- 47.1 64.2 47.1---
2026-04-17 02:48 pmNNE 6.0 7.0----30.02-------
2026-04-17 02:42 pmNNE 5.1 7.0----30.02-------
2026-04-17 02:36 pm-------30.02-------
2026-04-17 02:30 pm-------30.02- 46.0 64.4 46.0---
2026-04-17 02:24 pm-------30.02- 46.2 64.0 46.2---
2026-04-17 02:18 pm-------30.03-------
2026-04-17 02:12 pm-------30.03-------
2026-04-17 02:06 pm-------30.03-------
2026-04-17 02:00 pm-------30.03+0.01 46.0 63.5 46.0---
2026-04-17 01:54 pm-------30.03- 46.2 63.5 46.2---
2026-04-17 01:48 pm-------30.03-------
2026-04-17 01:42 pm-------30.03-------
2026-04-17 01:36 pm-------30.03-------
2026-04-17 01:30 pm N 5.1 6.0----30.03- 47.8 63.5 47.8---
2026-04-17 01:24 pm N 4.1 5.1----30.03- 48.7 63.7 48.7---
2026-04-17 01:18 pmNNW 5.1 6.0----30.03-- 63.5----
2026-04-17 01:12 pmNNW 5.1 6.0----30.03-- 63.1----
2026-04-17 01:06 pmNNW 4.1 5.1----30.03-- 63.3----
2026-04-17 01:00 pmNNW 2.9 4.1----30.03+0.02 48.2 63.1 48.2---
2026-04-17 12:54 pmNNW 2.9 5.1----30.03- 47.5 63.3 47.5---
2026-04-17 12:48 pm N 4.1 4.1----30.03-- 63.3----
2026-04-17 12:42 pm N 2.9 5.1----30.03-- 63.5----
2026-04-17 12:36 pm N 4.1 5.1----30.03-- 64.0----
2026-04-17 12:30 pm N 5.1 6.0----30.03- 45.7 63.9 45.7---
2026-04-17 12:24 pm N 5.1 6.0----30.03- 46.0 64.0 46.0---
2026-04-17 12:18 pm N 5.1 5.1----30.03-------
2026-04-17 12:12 pm N 5.1 6.0----30.03-------
2026-04-17 12:06 pm N 6.0 7.0----30.03-------
2026-04-17 12:00 pmNNE 6.0 7.0----30.03+0.03 46.0 63.3 46.0---
2026-04-17 11:54 am N 7.0 8.0----30.03- 46.0 63.5 46.0---
2026-04-17 11:48 am N 6.0 7.0----30.03-------
2026-04-17 11:42 am N 7.0 8.0----30.03-------
2026-04-17 11:36 am N 7.0 8.0----30.03-------
2026-04-17 11:30 am N 8.0 8.0----30.03- 47.5 63.1 47.5---
2026-04-17 11:24 am N 8.0 8.9----30.03- 48.4 63.3 48.4---
2026-04-17 11:00 am N 5.1 5.1----30.02+0.03 50.7 63.5 50.2---
2026-04-17 10:54 am N 4.1 5.1----30.02- 51.3 63.3 50.5---
2026-04-17 10:48 am N 4.1 5.1----30.02-- 63.3----
2026-04-17 10:42 amNNW 4.1 4.1----30.02-- 63.1----
2026-04-17 10:36 am N 4.1 4.1----30.02-- 63.0----
2026-04-17 10:30 am N 1.9 2.9----30.02- 51.1 63.1 50.5---
2026-04-17 10:24 am N 2.9 2.9----30.01- 50.9 63.1 50.7---
2026-04-17 10:18 am N 2.9 2.9----30.01-- 63.1----
2026-04-17 10:12 amNNW 1.9 2.9----30.01-- 63.1----
2026-04-17 10:06 amNNW 1.9 2.9----30.01-- 63.1----
2026-04-17 10:00 am NW 2.9 2.9----30.01+0.04 52.2 63.0 50.2---
2026-04-17 09:54 am NW 1.9 1.9----30.01- 51.6 63.0 49.6---
2026-04-17 09:48 am NW 1.9 1.9----30.01-- 63.0----
2026-04-17 09:42 amWNW 1.0 2.9----30.01-- 63.0----
2026-04-17 09:36 am W 1.9 2.9----30.01-- 63.0----
2026-04-17 09:30 am W 2.9 2.9----30.01- 50.2 62.8 50.2---
2026-04-17 09:24 am W 2.9 4.1----30.01- 50.2 62.8 50.2---
2026-04-17 09:18 am W 2.9 4.1----30.00-------
2026-04-17 09:12 am W 4.1 5.1----30.00-------
2026-04-17 09:06 am W 5.1 5.1----30.00-------
2026-04-17 09:00 am W 2.9 4.1----30.00+0.05 50.2 63.0 50.2---
2026-04-17 08:54 am W 4.1 4.1----30.00- 49.8 63.0 49.8---
2026-04-17 08:48 am W 4.1 4.1----30.00-------
2026-04-17 08:42 am W 2.9 4.1----29.99-------
2026-04-17 08:36 amWSW 4.1 4.1----30.00-------
2026-04-17 08:30 amWSW 2.9 4.1----30.00- 49.6 62.8 49.6---
2026-04-17 08:24 amWSW 4.1 5.1----29.99- 49.3 62.8 49.3---
2026-04-17 08:18 amWSW 4.1 5.1----29.99-------
2026-04-17 08:12 am W 4.1 5.1----29.99-------
2026-04-17 08:06 am W 5.1 6.0----29.99-------
2026-04-17 08:00 am W 5.1 5.1----29.99+0.06- 62.8----
2026-04-17 07:54 am W 4.1 5.1----29.98-- 62.8----
2026-04-17 07:48 amWSW 5.1 6.0----29.98-------
2026-04-17 07:42 amWSW 5.1 6.0----29.98-------
2026-04-17 07:36 amWSW 5.1 6.0----29.98-------
2026-04-17 07:30 amWSW 5.1 6.0----29.97- 49.3 62.8 49.3---
2026-04-17 07:24 amWSW 6.0 7.0----29.97- 49.1 63.0 49.1---
2026-04-17 07:18 amWSW 6.0 6.0----29.97-------
2026-04-17 07:12 amWSW 4.1 5.1----29.97-------
2026-04-17 07:06 amWSW 4.1 5.1----29.97-------
2026-04-17 07:00 amWSW 5.1 5.1----29.97+0.05 49.3 62.8 49.3---
2026-04-17 06:54 amWSW 5.1 5.1----29.96- 49.3 62.8 49.3---
2026-04-17 06:48 am W 4.1 6.0----29.96- 49.3 62.8 49.3---
2026-04-17 06:42 am W 5.1 6.0----29.96- 49.3 63.0 49.3---
2026-04-17 06:36 am W 5.1 7.0----29.96- 49.1 63.0 49.1---
2026-04-17 06:30 am W 6.0 7.0----29.96- 49.3 63.0 49.3---
2026-04-17 06:24 am W 6.0 8.0----29.96- 49.3 63.0 49.3---
2026-04-17 06:18 am W 7.0 8.0----29.95-- 63.1----
2026-04-17 06:12 am W 6.0 7.0----29.95-- 63.1----
2026-04-17 06:06 am W 5.1 6.0----29.95-- 63.1----
2026-04-17 06:00 am W 5.1 5.1----29.95+0.05 50.0 63.0 50.0---
2026-04-17 05:54 am W 2.9 2.9----29.95- 49.8 62.4 49.8---